Boston, Massachusetts
Current Conditions -  °F | °C
As of 7:54 AM on Saturday 01 Nov 2014 (Local Time) from KBOS Reporting Station
Overcast Overcast  
Wind Chill:   Ceiling: 3500
Heat Index:   Visibility: 10mi
Dew Point:   Wind: 14mph
Humidity: 74%   Direction: 10°N
Pressure: 29.91"   Gusts: NA
Location:  42.36°N, 71.06°W
Report Text: KBOS 011154Z 01012KT 10SM FEW015 BKN035 OVC090 06/02 A2991 RMK AO2 SLP126 T00610017 10094 20061 53002
Loading
Personal Weather Stations






























Interactive Weather Map New forecast layout! Learn more

10-Day Weather Forecast

Advertisements
Track Severe Weather on mobile